sensor_id;sensor_type;location;lat;lon;timestamp;P1;durP1;ratioP1;P2;durP2;ratioP2
55220;SDS011;41089;51.448;6.604;2023-03-23T00:01:50;2.92;;;2.30;;
55220;SDS011;41089;51.448;6.604;2023-03-23T00:07:50;5.40;;;2.47;;
55220;SDS011;41089;51.448;6.604;2023-03-23T00:13:55;5.05;;;2.40;;
55220;SDS011;41089;51.448;6.604;2023-03-23T00:19:58;2.42;;;2.20;;
55220;SDS011;41089;51.448;6.604;2023-03-23T00:25:58;3.80;;;2.22;;
55220;SDS011;41089;51.448;6.604;2023-03-23T00:31:59;3.53;;;2.58;;
55220;SDS011;41089;51.448;6.604;2023-03-23T00:37:59;3.93;;;2.50;;
55220;SDS011;41089;51.448;6.604;2023-03-23T00:44:00;5.65;;;3.10;;
55220;SDS011;41089;51.448;6.604;2023-03-23T00:50:00;4.50;;;2.83;;
55220;SDS011;41089;51.448;6.604;2023-03-23T00:56:01;3.60;;;2.55;;
55220;SDS011;41089;51.448;6.604;2023-03-23T01:02:01;4.47;;;2.60;;
55220;SDS011;41089;51.448;6.604;2023-03-23T01:08:02;3.35;;;2.78;;
55220;SDS011;41089;51.448;6.604;2023-03-23T01:14:04;4.15;;;2.50;;
55220;SDS011;41089;51.448;6.604;2023-03-23T01:20:05;2.88;;;2.60;;
55220;SDS011;41089;51.448;6.604;2023-03-23T01:26:16;5.00;;;2.55;;
55220;SDS011;41089;51.448;6.604;2023-03-23T01:32:22;7.10;;;2.60;;
55220;SDS011;41089;51.448;6.604;2023-03-23T01:38:23;5.15;;;2.85;;
55220;SDS011;41089;51.448;6.604;2023-03-23T01:56:25;4.17;;;2.57;;
55220;SDS011;41089;51.448;6.604;2023-03-23T02:02:29;3.72;;;2.50;;
55220;SDS011;41089;51.448;6.604;2023-03-23T02:08:31;3.65;;;3.08;;
55220;SDS011;41089;51.448;6.604;2023-03-23T02:14:35;5.78;;;2.53;;
55220;SDS011;41089;51.448;6.604;2023-03-23T02:20:44;4.13;;;2.83;;
55220;SDS011;41089;51.448;6.604;2023-03-23T02:27:07;3.17;;;2.50;;
55220;SDS011;41089;51.448;6.604;2023-03-23T02:39:34;3.75;;;2.75;;
55220;SDS011;41089;51.448;6.604;2023-03-23T02:45:38;4.05;;;2.67;;
55220;SDS011;41089;51.448;6.604;2023-03-23T02:51:39;3.72;;;2.63;;
55220;SDS011;41089;51.448;6.604;2023-03-23T02:57:40;3.42;;;2.60;;
55220;SDS011;41089;51.448;6.604;2023-03-23T03:03:40;2.80;;;2.58;;
55220;SDS011;41089;51.448;6.604;2023-03-23T03:09:49;4.53;;;2.72;;
55220;SDS011;41089;51.448;6.604;2023-03-23T03:16:05;5.38;;;3.08;;
55220;SDS011;41089;51.448;6.604;2023-03-23T03:22:09;4.32;;;2.72;;
55220;SDS011;41089;51.448;6.604;2023-03-23T03:28:11;3.70;;;2.72;;
55220;SDS011;41089;51.448;6.604;2023-03-23T03:34:13;3.95;;;2.20;;
55220;SDS011;41089;51.448;6.604;2023-03-23T03:40:19;2.75;;;2.47;;
55220;SDS011;41089;51.448;6.604;2023-03-23T03:46:21;4.05;;;2.67;;
55220;SDS011;41089;51.448;6.604;2023-03-23T03:58:21;3.03;;;2.40;;
55220;SDS011;41089;51.448;6.604;2023-03-23T04:04:22;2.28;;;2.08;;
55220;SDS011;41089;51.448;6.604;2023-03-23T04:10:23;2.23;;;1.97;;
55220;SDS011;41089;51.448;6.604;2023-03-23T04:16:23;2.35;;;2.15;;
55220;SDS011;41089;51.448;6.604;2023-03-23T04:22:27;3.13;;;2.25;;
55220;SDS011;41089;51.448;6.604;2023-03-23T04:28:30;1.98;;;1.88;;
55220;SDS011;41089;51.448;6.604;2023-03-23T04:34:33;4.22;;;2.22;;
55220;SDS011;41089;51.448;6.604;2023-03-23T04:40:36;2.83;;;2.30;;
55220;SDS011;41089;51.448;6.604;2023-03-23T04:46:37;4.05;;;2.20;;
55220;SDS011;41089;51.448;6.604;2023-03-23T04:52:39;2.40;;;2.20;;
55220;SDS011;41089;51.448;6.604;2023-03-23T04:58:40;2.80;;;2.28;;
55220;SDS011;41089;51.448;6.604;2023-03-23T05:04:40;4.35;;;2.63;;
55220;SDS011;41089;51.448;6.604;2023-03-23T05:10:41;3.33;;;2.70;;
55220;SDS011;41089;51.448;6.604;2023-03-23T05:16:42;5.03;;;3.17;;
55220;SDS011;41089;51.448;6.604;2023-03-23T05:22:49;3.05;;;2.55;;
55220;SDS011;41089;51.448;6.604;2023-03-23T05:28:50;2.15;;;1.95;;
55220;SDS011;41089;51.448;6.604;2023-03-23T05:47:29;2.50;;;2.00;;
55220;SDS011;41089;51.448;6.604;2023-03-23T05:53:39;3.60;;;2.30;;
55220;SDS011;41089;51.448;6.604;2023-03-23T05:59:49;4.30;;;2.20;;
55220;SDS011;41089;51.448;6.604;2023-03-23T06:05:50;2.58;;;2.13;;
55220;SDS011;41089;51.448;6.604;2023-03-23T06:11:50;3.95;;;2.25;;
55220;SDS011;41089;51.448;6.604;2023-03-23T06:17:51;4.55;;;2.60;;
55220;SDS011;41089;51.448;6.604;2023-03-23T06:23:57;3.55;;;2.33;;
55220;SDS011;41089;51.448;6.604;2023-03-23T06:29:59;5.40;;;2.65;;
55220;SDS011;41089;51.448;6.604;2023-03-23T06:35:59;4.65;;;3.08;;
55220;SDS011;41089;51.448;6.604;2023-03-23T06:42:00;4.85;;;2.60;;
55220;SDS011;41089;51.448;6.604;2023-03-23T06:48:00;4.85;;;2.40;;
55220;SDS011;41089;51.448;6.604;2023-03-23T06:54:01;5.70;;;2.30;;
55220;SDS011;41089;51.448;6.604;2023-03-23T07:00:01;5.23;;;2.83;;
55220;SDS011;41089;51.448;6.604;2023-03-23T07:06:05;6.88;;;2.20;;
55220;SDS011;41089;51.448;6.604;2023-03-23T07:12:06;4.47;;;2.10;;
55220;SDS011;41089;51.448;6.604;2023-03-23T07:18:07;4.40;;;2.35;;
55220;SDS011;41089;51.448;6.604;2023-03-23T07:24:11;4.30;;;2.13;;
55220;SDS011;41089;51.448;6.604;2023-03-23T07:30:16;4.53;;;2.67;;
55220;SDS011;41089;51.448;6.604;2023-03-23T07:36:16;6.80;;;2.03;;
55220;SDS011;41089;51.448;6.604;2023-03-23T07:48:17;5.50;;;2.28;;
55220;SDS011;41089;51.448;6.604;2023-03-23T08:00:18;5.47;;;2.03;;
55220;SDS011;41089;51.448;6.604;2023-03-23T08:06:20;4.38;;;1.75;;
55220;SDS011;41089;51.448;6.604;2023-03-23T08:12:21;2.85;;;1.60;;
55220;SDS011;41089;51.448;6.604;2023-03-23T08:18:22;4.20;;;1.90;;
55220;SDS011;41089;51.448;6.604;2023-03-23T08:24:22;4.28;;;1.70;;
55220;SDS011;41089;51.448;6.604;2023-03-23T08:30:23;6.75;;;2.03;;
55220;SDS011;41089;51.448;6.604;2023-03-23T08:36:25;2.58;;;1.75;;
55220;SDS011;41089;51.448;6.604;2023-03-23T08:42:27;5.45;;;2.10;;
55220;SDS011;41089;51.448;6.604;2023-03-23T08:54:28;5.50;;;2.95;;
55220;SDS011;41089;51.448;6.604;2023-03-23T09:00:30;5.22;;;2.58;;
55220;SDS011;41089;51.448;6.604;2023-03-23T09:06:30;3.85;;;1.50;;
55220;SDS011;41089;51.448;6.604;2023-03-23T09:12:31;7.53;;;1.93;;
55220;SDS011;41089;51.448;6.604;2023-03-23T09:18:31;6.43;;;1.87;;
55220;SDS011;41089;51.448;6.604;2023-03-23T09:24:32;6.43;;;1.52;;
55220;SDS011;41089;51.448;6.604;2023-03-23T09:30:33;3.78;;;1.70;;
55220;SDS011;41089;51.448;6.604;2023-03-23T09:36:36;7.13;;;1.60;;
55220;SDS011;41089;51.448;6.604;2023-03-23T09:49:14;3.38;;;1.23;;
55220;SDS011;41089;51.448;6.604;2023-03-23T09:55:35;2.75;;;1.05;;
55220;SDS011;41089;51.448;6.604;2023-03-23T10:01:53;2.78;;;1.20;;
55220;SDS011;41089;51.448;6.604;2023-03-23T10:07:58;4.22;;;0.98;;
55220;SDS011;41089;51.448;6.604;2023-03-23T10:14:04;6.25;;;1.13;;
55220;SDS011;41089;51.448;6.604;2023-03-23T10:32:44;4.95;;;1.70;;
55220;SDS011;41089;51.448;6.604;2023-03-23T10:39:29;4.07;;;1.75;;
55220;SDS011;41089;51.448;6.604;2023-03-23T10:45:17;3.72;;;1.38;;
55220;SDS011;41089;51.448;6.604;2023-03-23T10:51:21;2.13;;;1.20;;
55220;SDS011;41089;51.448;6.604;2023-03-23T10:57:26;6.53;;;1.90;;
55220;SDS011;41089;51.448;6.604;2023-03-23T11:09:53;3.92;;;1.23;;
55220;SDS011;41089;51.448;6.604;2023-03-23T11:15:56;3.78;;;1.60;;
55220;SDS011;41089;51.448;6.604;2023-03-23T11:28:04;5.22;;;1.33;;
55220;SDS011;41089;51.448;6.604;2023-03-23T11:34:09;5.00;;;0.93;;
55220;SDS011;41089;51.448;6.604;2023-03-23T11:40:17;4.28;;;1.45;;
55220;SDS011;41089;51.448;6.604;2023-03-23T11:47:04;3.50;;;2.20;;
55220;SDS011;41089;51.448;6.604;2023-03-23T11:59:12;2.63;;;1.13;;
55220;SDS011;41089;51.448;6.604;2023-03-23T12:30:02;2.20;;;1.30;;
55220;SDS011;41089;51.448;6.604;2023-03-23T12:48:59;2.67;;;1.63;;
55220;SDS011;41089;51.448;6.604;2023-03-23T12:55:19;4.60;;;1.40;;
55220;SDS011;41089;51.448;6.604;2023-03-23T13:01:49;3.05;;;1.65;;
55220;SDS011;41089;51.448;6.604;2023-03-23T13:08:16;4.68;;;1.67;;
55220;SDS011;41089;51.448;6.604;2023-03-23T13:14:25;3.80;;;1.92;;
55220;SDS011;41089;51.448;6.604;2023-03-23T13:20:36;3.58;;;1.95;;
55220;SDS011;41089;51.448;6.604;2023-03-23T13:26:38;4.50;;;1.77;;
55220;SDS011;41089;51.448;6.604;2023-03-23T13:32:40;5.82;;;2.58;;
55220;SDS011;41089;51.448;6.604;2023-03-23T13:38:47;5.22;;;2.47;;
55220;SDS011;41089;51.448;6.604;2023-03-23T13:50:58;4.38;;;2.00;;
55220;SDS011;41089;51.448;6.604;2023-03-23T14:03:26;3.63;;;2.10;;
55220;SDS011;41089;51.448;6.604;2023-03-23T14:09:37;4.50;;;2.00;;
55220;SDS011;41089;51.448;6.604;2023-03-23T14:15:43;5.10;;;2.00;;
55220;SDS011;41089;51.448;6.604;2023-03-23T14:21:49;4.78;;;2.00;;
55220;SDS011;41089;51.448;6.604;2023-03-23T14:27:55;3.90;;;2.53;;
55220;SDS011;41089;51.448;6.604;2023-03-23T14:34:01;4.63;;;2.67;;
55220;SDS011;41089;51.448;6.604;2023-03-23T14:40:04;2.45;;;1.95;;
55220;SDS011;41089;51.448;6.604;2023-03-23T14:46:06;6.78;;;2.78;;
55220;SDS011;41089;51.448;6.604;2023-03-23T14:52:13;4.95;;;2.33;;
55220;SDS011;41089;51.448;6.604;2023-03-23T14:58:16;3.22;;;1.60;;
55220;SDS011;41089;51.448;6.604;2023-03-23T15:04:19;3.85;;;1.75;;
55220;SDS011;41089;51.448;6.604;2023-03-23T15:10:22;5.68;;;2.08;;
55220;SDS011;41089;51.448;6.604;2023-03-23T15:16:24;2.78;;;1.73;;
55220;SDS011;41089;51.448;6.604;2023-03-23T15:28:31;5.55;;;1.80;;
55220;SDS011;41089;51.448;6.604;2023-03-23T15:34:36;4.63;;;1.85;;
55220;SDS011;41089;51.448;6.604;2023-03-23T15:40:39;4.90;;;1.80;;
55220;SDS011;41089;51.448;6.604;2023-03-23T15:52:53;4.07;;;1.85;;
55220;SDS011;41089;51.448;6.604;2023-03-23T15:58:54;3.85;;;2.25;;
55220;SDS011;41089;51.448;6.604;2023-03-23T16:04:58;6.32;;;2.30;;
55220;SDS011;41089;51.448;6.604;2023-03-23T16:10:59;4.57;;;1.92;;
55220;SDS011;41089;51.448;6.604;2023-03-23T16:17:00;5.57;;;2.40;;
55220;SDS011;41089;51.448;6.604;2023-03-23T16:23:01;4.90;;;2.28;;
55220;SDS011;41089;51.448;6.604;2023-03-23T16:29:02;4.83;;;2.30;;
55220;SDS011;41089;51.448;6.604;2023-03-23T16:35:10;7.45;;;2.25;;
55220;SDS011;41089;51.448;6.604;2023-03-23T16:41:12;5.40;;;2.20;;
55220;SDS011;41089;51.448;6.604;2023-03-23T16:47:13;5.37;;;2.50;;
55220;SDS011;41089;51.448;6.604;2023-03-23T16:53:18;8.43;;;2.22;;
55220;SDS011;41089;51.448;6.604;2023-03-23T16:59:19;4.28;;;2.08;;
55220;SDS011;41089;51.448;6.604;2023-03-23T17:05:20;6.93;;;2.27;;
55220;SDS011;41089;51.448;6.604;2023-03-23T17:11:21;7.40;;;2.60;;
55220;SDS011;41089;51.448;6.604;2023-03-23T17:17:22;7.53;;;3.17;;
55220;SDS011;41089;51.448;6.604;2023-03-23T17:23:23;6.85;;;3.17;;
55220;SDS011;41089;51.448;6.604;2023-03-23T17:29:23;4.70;;;2.38;;
55220;SDS011;41089;51.448;6.604;2023-03-23T17:35:25;4.63;;;2.05;;
55220;SDS011;41089;51.448;6.604;2023-03-23T17:41:26;8.27;;;2.67;;
55220;SDS011;41089;51.448;6.604;2023-03-23T17:47:27;4.32;;;2.60;;
55220;SDS011;41089;51.448;6.604;2023-03-23T17:53:28;9.37;;;2.57;;
55220;SDS011;41089;51.448;6.604;2023-03-23T17:59:29;6.72;;;2.45;;
55220;SDS011;41089;51.448;6.604;2023-03-23T18:05:30;6.65;;;2.38;;
55220;SDS011;41089;51.448;6.604;2023-03-23T18:11:32;8.80;;;2.30;;
55220;SDS011;41089;51.448;6.604;2023-03-23T18:17:32;5.97;;;2.63;;
55220;SDS011;41089;51.448;6.604;2023-03-23T18:23:33;8.93;;;2.58;;
55220;SDS011;41089;51.448;6.604;2023-03-23T18:29:34;4.55;;;1.95;;
55220;SDS011;41089;51.448;6.604;2023-03-23T18:35:35;7.30;;;2.93;;
55220;SDS011;41089;51.448;6.604;2023-03-23T18:41:35;8.80;;;2.50;;
55220;SDS011;41089;51.448;6.604;2023-03-23T18:47:36;5.97;;;2.10;;
55220;SDS011;41089;51.448;6.604;2023-03-23T18:53:37;9.30;;;3.00;;
55220;SDS011;41089;51.448;6.604;2023-03-23T18:59:38;5.88;;;2.20;;
55220;SDS011;41089;51.448;6.604;2023-03-23T19:05:39;7.53;;;2.55;;
55220;SDS011;41089;51.448;6.604;2023-03-23T19:11:40;7.00;;;2.40;;
55220;SDS011;41089;51.448;6.604;2023-03-23T19:17:41;7.60;;;2.42;;
55220;SDS011;41089;51.448;6.604;2023-03-23T19:23:42;10.32;;;2.50;;
55220;SDS011;41089;51.448;6.604;2023-03-23T19:29:43;7.18;;;2.53;;
55220;SDS011;41089;51.448;6.604;2023-03-23T19:35:46;7.15;;;2.47;;
55220;SDS011;41089;51.448;6.604;2023-03-23T19:41:49;9.95;;;2.22;;
55220;SDS011;41089;51.448;6.604;2023-03-23T19:47:50;7.47;;;2.50;;
55220;SDS011;41089;51.448;6.604;2023-03-23T19:53:50;6.22;;;2.63;;
55220;SDS011;41089;51.448;6.604;2023-03-23T19:59:51;8.68;;;3.13;;
55220;SDS011;41089;51.448;6.604;2023-03-23T20:05:54;7.67;;;3.03;;
55220;SDS011;41089;51.448;6.604;2023-03-23T20:11:58;6.90;;;3.05;;
55220;SDS011;41089;51.448;6.604;2023-03-23T20:17:59;8.23;;;2.65;;
55220;SDS011;41089;51.448;6.604;2023-03-23T20:24:01;5.35;;;2.30;;
55220;SDS011;41089;51.448;6.604;2023-03-23T20:30:02;6.40;;;2.55;;
55220;SDS011;41089;51.448;6.604;2023-03-23T20:36:03;7.63;;;2.40;;
55220;SDS011;41089;51.448;6.604;2023-03-23T20:42:05;5.40;;;2.25;;
55220;SDS011;41089;51.448;6.604;2023-03-23T20:48:07;4.65;;;2.00;;
55220;SDS011;41089;51.448;6.604;2023-03-23T20:54:08;6.53;;;3.00;;
55220;SDS011;41089;51.448;6.604;2023-03-23T21:00:09;4.50;;;1.98;;
55220;SDS011;41089;51.448;6.604;2023-03-23T21:06:15;5.18;;;2.58;;
55220;SDS011;41089;51.448;6.604;2023-03-23T21:12:15;7.40;;;2.33;;
55220;SDS011;41089;51.448;6.604;2023-03-23T21:18:16;7.97;;;3.00;;
55220;SDS011;41089;51.448;6.604;2023-03-23T21:24:16;5.97;;;2.17;;
55220;SDS011;41089;51.448;6.604;2023-03-23T21:30:19;4.17;;;2.30;;
55220;SDS011;41089;51.448;6.604;2023-03-23T21:36:24;4.70;;;1.92;;
55220;SDS011;41089;51.448;6.604;2023-03-23T21:42:26;4.78;;;2.13;;
55220;SDS011;41089;51.448;6.604;2023-03-23T21:48:32;3.75;;;1.92;;
55220;SDS011;41089;51.448;6.604;2023-03-23T21:54:45;5.18;;;2.63;;
55220;SDS011;41089;51.448;6.604;2023-03-23T22:00:49;4.50;;;2.22;;
55220;SDS011;41089;51.448;6.604;2023-03-23T22:06:53;7.63;;;2.70;;
55220;SDS011;41089;51.448;6.604;2023-03-23T22:12:53;5.07;;;1.90;;
55220;SDS011;41089;51.448;6.604;2023-03-23T22:18:54;3.67;;;1.83;;
55220;SDS011;41089;51.448;6.604;2023-03-23T22:24:55;2.90;;;1.85;;
55220;SDS011;41089;51.448;6.604;2023-03-23T22:31:00;6.85;;;3.40;;
55220;SDS011;41089;51.448;6.604;2023-03-23T22:37:04;5.18;;;2.38;;
55220;SDS011;41089;51.448;6.604;2023-03-23T22:43:04;4.67;;;2.87;;
55220;SDS011;41089;51.448;6.604;2023-03-23T22:55:06;6.35;;;1.90;;
55220;SDS011;41089;51.448;6.604;2023-03-23T23:01:10;6.05;;;2.30;;
55220;SDS011;41089;51.448;6.604;2023-03-23T23:07:13;3.10;;;2.22;;
55220;SDS011;41089;51.448;6.604;2023-03-23T23:13:14;4.53;;;2.30;;
55220;SDS011;41089;51.448;6.604;2023-03-23T23:19:15;4.03;;;2.10;;
55220;SDS011;41089;51.448;6.604;2023-03-23T23:25:15;5.00;;;2.13;;
55220;SDS011;41089;51.448;6.604;2023-03-23T23:31:25;4.18;;;2.00;;
55220;SDS011;41089;51.448;6.604;2023-03-23T23:37:28;3.38;;;1.88;;
55220;SDS011;41089;51.448;6.604;2023-03-23T23:43:29;3.88;;;1.92;;
55220;SDS011;41089;51.448;6.604;2023-03-23T23:55:31;2.28;;;1.65;;
